Bluffdale, Utah
Current Conditions -  °F | °C
As of 8:53 AM on Friday 19 Dec 2014 (Local Time) from KSLC Reporting Station
Broken Clouds Broken Clouds  
Wind Chill: 26°   Ceiling: 10000
Heat Index: 35°   Visibility: 10mi
Dew Point: 28°   Wind: 13mph
Humidity: 76%   Direction: 130°SE
Pressure: 30.19"   Gusts: NA
Location:  40.5353°N, 111.962°W
Report Text: KSLC 191553Z 13011KT 10SM FEW060 BKN100 BKN150 BKN210 02/M02 A3019 RMK AO2 SLP231 VIRGA DSNT NW T00171022
Loading
Personal Weather Stations






























Interactive Weather Map New forecast layout! Learn more

10-Day Weather Forecast

Advertisements
Track Severe Weather on mobile